sensor_id;sensor_type;location;lat;lon;timestamp;P1;durP1;ratioP1;P2;durP2;ratioP2
45128;SDS011;35512;56.312;101.728;2023-03-14T00:00:17;0.60;;;0.60;;
45128;SDS011;35512;56.312;101.728;2023-03-14T00:02:51;0.60;;;0.60;;
45128;SDS011;35512;56.312;101.728;2023-03-14T00:05:21;0.60;;;0.60;;
45128;SDS011;35512;56.312;101.728;2023-03-14T00:07:50;0.60;;;0.60;;
45128;SDS011;35512;56.312;101.728;2023-03-14T00:10:19;0.60;;;0.60;;
45128;SDS011;35512;56.312;101.728;2023-03-14T00:12:48;0.60;;;0.60;;
45128;SDS011;35512;56.312;101.728;2023-03-14T00:15:17;0.60;;;0.60;;
45128;SDS011;35512;56.312;101.728;2023-03-14T00:17:46;0.50;;;0.50;;
45128;SDS011;35512;56.312;101.728;2023-03-14T00:20:16;0.60;;;0.60;;
45128;SDS011;35512;56.312;101.728;2023-03-14T00:22:44;0.60;;;0.60;;
45128;SDS011;35512;56.312;101.728;2023-03-14T00:25:13;0.50;;;0.50;;
45128;SDS011;35512;56.312;101.728;2023-03-14T00:27:43;0.60;;;0.60;;
45128;SDS011;35512;56.312;101.728;2023-03-14T00:30:13;0.50;;;0.50;;
45128;SDS011;35512;56.312;101.728;2023-03-14T00:32:41;0.60;;;0.60;;
45128;SDS011;35512;56.312;101.728;2023-03-14T00:35:11;0.60;;;0.60;;
45128;SDS011;35512;56.312;101.728;2023-03-14T00:37:40;0.52;;;0.52;;
45128;SDS011;35512;56.312;101.728;2023-03-14T00:40:09;0.60;;;0.60;;
45128;SDS011;35512;56.312;101.728;2023-03-14T00:42:38;0.60;;;0.60;;
45128;SDS011;35512;56.312;101.728;2023-03-14T00:45:08;0.60;;;0.60;;
45128;SDS011;35512;56.312;101.728;2023-03-14T00:47:38;0.60;;;0.60;;
45128;SDS011;35512;56.312;101.728;2023-03-14T00:50:08;0.50;;;0.50;;
45128;SDS011;35512;56.312;101.728;2023-03-14T00:52:38;0.55;;;0.55;;
45128;SDS011;35512;56.312;101.728;2023-03-14T00:55:09;0.60;;;0.60;;
45128;SDS011;35512;56.312;101.728;2023-03-14T00:57:38;0.50;;;0.50;;
45128;SDS011;35512;56.312;101.728;2023-03-14T01:00:07;0.50;;;0.50;;
45128;SDS011;35512;56.312;101.728;2023-03-14T01:02:40;0.50;;;0.50;;
45128;SDS011;35512;56.312;101.728;2023-03-14T01:05:09;0.50;;;0.50;;
45128;SDS011;35512;56.312;101.728;2023-03-14T01:07:38;0.50;;;0.50;;
45128;SDS011;35512;56.312;101.728;2023-03-14T01:10:07;0.50;;;0.50;;
45128;SDS011;35512;56.312;101.728;2023-03-14T01:12:38;0.50;;;0.50;;
45128;SDS011;35512;56.312;101.728;2023-03-14T01:15:08;0.50;;;0.50;;
45128;SDS011;35512;56.312;101.728;2023-03-14T01:17:37;0.50;;;0.50;;
45128;SDS011;35512;56.312;101.728;2023-03-14T01:20:08;0.50;;;0.50;;
45128;SDS011;35512;56.312;101.728;2023-03-14T01:22:40;0.60;;;0.60;;
45128;SDS011;35512;56.312;101.728;2023-03-14T01:25:12;0.50;;;0.50;;
45128;SDS011;35512;56.312;101.728;2023-03-14T01:27:42;0.50;;;0.50;;
45128;SDS011;35512;56.312;101.728;2023-03-14T01:30:12;0.50;;;0.50;;
45128;SDS011;35512;56.312;101.728;2023-03-14T01:32:41;0.50;;;0.50;;
45128;SDS011;35512;56.312;101.728;2023-03-14T01:35:10;0.50;;;0.50;;
45128;SDS011;35512;56.312;101.728;2023-03-14T01:37:39;0.50;;;0.50;;
45128;SDS011;35512;56.312;101.728;2023-03-14T01:40:13;0.52;;;0.52;;
45128;SDS011;35512;56.312;101.728;2023-03-14T01:42:46;0.50;;;0.50;;
45128;SDS011;35512;56.312;101.728;2023-03-14T01:48:31;0.50;;;0.50;;
45128;SDS011;35512;56.312;101.728;2023-03-14T01:51:05;0.60;;;0.60;;
45128;SDS011;35512;56.312;101.728;2023-03-14T01:53:39;0.50;;;0.50;;
45128;SDS011;35512;56.312;101.728;2023-03-14T01:56:10;0.50;;;0.50;;
45128;SDS011;35512;56.312;101.728;2023-03-14T01:58:42;0.50;;;0.50;;
45128;SDS011;35512;56.312;101.728;2023-03-14T02:01:20;0.50;;;0.50;;
45128;SDS011;35512;56.312;101.728;2023-03-14T02:03:53;0.50;;;0.50;;
45128;SDS011;35512;56.312;101.728;2023-03-14T02:06:29;0.50;;;0.50;;
45128;SDS011;35512;56.312;101.728;2023-03-14T02:09:04;0.60;;;0.60;;
45128;SDS011;35512;56.312;101.728;2023-03-14T02:11:35;0.50;;;0.50;;
45128;SDS011;35512;56.312;101.728;2023-03-14T02:14:30;0.60;;;0.60;;
45128;SDS011;35512;56.312;101.728;2023-03-14T02:17:21;0.50;;;0.50;;
45128;SDS011;35512;56.312;101.728;2023-03-14T02:23:07;0.40;;;0.40;;
45128;SDS011;35512;56.312;101.728;2023-03-14T02:25:46;0.40;;;0.40;;
45128;SDS011;35512;56.312;101.728;2023-03-14T02:28:24;0.45;;;0.45;;
45128;SDS011;35512;56.312;101.728;2023-03-14T02:30:57;0.40;;;0.40;;
45128;SDS011;35512;56.312;101.728;2023-03-14T02:33:26;0.40;;;0.40;;
45128;SDS011;35512;56.312;101.728;2023-03-14T02:35:59;0.40;;;0.40;;
45128;SDS011;35512;56.312;101.728;2023-03-14T02:38:33;0.40;;;0.40;;
45128;SDS011;35512;56.312;101.728;2023-03-14T02:41:09;0.40;;;0.40;;
45128;SDS011;35512;56.312;101.728;2023-03-14T02:43:43;0.40;;;0.40;;
45128;SDS011;35512;56.312;101.728;2023-03-14T02:46:15;0.50;;;0.50;;
45128;SDS011;35512;56.312;101.728;2023-03-14T02:48:53;0.50;;;0.50;;
45128;SDS011;35512;56.312;101.728;2023-03-14T02:51:26;0.47;;;0.47;;
45128;SDS011;35512;56.312;101.728;2023-03-14T02:53:56;0.40;;;0.40;;
45128;SDS011;35512;56.312;101.728;2023-03-14T02:56:25;0.30;;;0.30;;
45128;SDS011;35512;56.312;101.728;2023-03-14T02:58:55;0.40;;;0.40;;
45128;SDS011;35512;56.312;101.728;2023-03-14T03:01:42;0.50;;;0.50;;
45128;SDS011;35512;56.312;101.728;2023-03-14T03:04:11;0.40;;;0.40;;
45128;SDS011;35512;56.312;101.728;2023-03-14T03:06:40;0.40;;;0.40;;
45128;SDS011;35512;56.312;101.728;2023-03-14T03:09:13;0.40;;;0.40;;
45128;SDS011;35512;56.312;101.728;2023-03-14T03:11:42;0.52;;;0.52;;
45128;SDS011;35512;56.312;101.728;2023-03-14T03:14:17;0.40;;;0.40;;
45128;SDS011;35512;56.312;101.728;2023-03-14T03:16:46;0.40;;;0.40;;
45128;SDS011;35512;56.312;101.728;2023-03-14T03:19:15;0.40;;;0.40;;
45128;SDS011;35512;56.312;101.728;2023-03-14T03:21:47;0.40;;;0.40;;
45128;SDS011;35512;56.312;101.728;2023-03-14T03:24:17;0.40;;;0.40;;
45128;SDS011;35512;56.312;101.728;2023-03-14T03:26:46;0.40;;;0.40;;
45128;SDS011;35512;56.312;101.728;2023-03-14T03:29:15;0.40;;;0.40;;
45128;SDS011;35512;56.312;101.728;2023-03-14T03:31:45;0.40;;;0.40;;
45128;SDS011;35512;56.312;101.728;2023-03-14T03:34:14;0.40;;;0.40;;
45128;SDS011;35512;56.312;101.728;2023-03-14T03:36:44;0.40;;;0.40;;
45128;SDS011;35512;56.312;101.728;2023-03-14T03:39:13;0.40;;;0.40;;
45128;SDS011;35512;56.312;101.728;2023-03-14T03:41:41;0.40;;;0.40;;
45128;SDS011;35512;56.312;101.728;2023-03-14T03:44:11;0.40;;;0.40;;
45128;SDS011;35512;56.312;101.728;2023-03-14T03:46:41;0.40;;;0.40;;
45128;SDS011;35512;56.312;101.728;2023-03-14T03:49:09;0.40;;;0.40;;
45128;SDS011;35512;56.312;101.728;2023-03-14T03:51:39;0.40;;;0.40;;
45128;SDS011;35512;56.312;101.728;2023-03-14T03:54:08;0.50;;;0.50;;
45128;SDS011;35512;56.312;101.728;2023-03-14T03:56:38;0.40;;;0.40;;
45128;SDS011;35512;56.312;101.728;2023-03-14T03:59:07;0.40;;;0.40;;
45128;SDS011;35512;56.312;101.728;2023-03-14T04:01:36;0.60;;;0.60;;
45128;SDS011;35512;56.312;101.728;2023-03-14T04:04:05;0.60;;;0.60;;
45128;SDS011;35512;56.312;101.728;2023-03-14T04:06:35;0.60;;;0.60;;
45128;SDS011;35512;56.312;101.728;2023-03-14T04:09:05;0.50;;;0.50;;
45128;SDS011;35512;56.312;101.728;2023-03-14T04:11:42;0.40;;;0.40;;
45128;SDS011;35512;56.312;101.728;2023-03-14T04:14:20;0.38;;;0.38;;
45128;SDS011;35512;56.312;101.728;2023-03-14T04:16:58;0.30;;;0.30;;
45128;SDS011;35512;56.312;101.728;2023-03-14T04:19:27;0.30;;;0.30;;
45128;SDS011;35512;56.312;101.728;2023-03-14T04:21:56;0.30;;;0.30;;
45128;SDS011;35512;56.312;101.728;2023-03-14T04:24:31;0.30;;;0.30;;
45128;SDS011;35512;56.312;101.728;2023-03-14T04:27:00;0.30;;;0.30;;
45128;SDS011;35512;56.312;101.728;2023-03-14T04:29:29;0.30;;;0.30;;
45128;SDS011;35512;56.312;101.728;2023-03-14T04:31:58;0.40;;;0.40;;
45128;SDS011;35512;56.312;101.728;2023-03-14T04:34:27;0.40;;;0.40;;
45128;SDS011;35512;56.312;101.728;2023-03-14T04:36:57;0.30;;;0.30;;
45128;SDS011;35512;56.312;101.728;2023-03-14T04:39:35;0.30;;;0.30;;
45128;SDS011;35512;56.312;101.728;2023-03-14T04:42:24;0.40;;;0.40;;
45128;SDS011;35512;56.312;101.728;2023-03-14T04:44:53;0.40;;;0.40;;
45128;SDS011;35512;56.312;101.728;2023-03-14T04:47:25;0.40;;;0.40;;
45128;SDS011;35512;56.312;101.728;2023-03-14T04:49:54;0.40;;;0.40;;
45128;SDS011;35512;56.312;101.728;2023-03-14T04:52:24;0.40;;;0.40;;
45128;SDS011;35512;56.312;101.728;2023-03-14T04:54:54;0.40;;;0.40;;
45128;SDS011;35512;56.312;101.728;2023-03-14T04:57:25;0.40;;;0.40;;
45128;SDS011;35512;56.312;101.728;2023-03-14T04:59:55;0.40;;;0.40;;
45128;SDS011;35512;56.312;101.728;2023-03-14T05:02:44;0.40;;;0.40;;
45128;SDS011;35512;56.312;101.728;2023-03-14T05:05:27;0.38;;;0.38;;
45128;SDS011;35512;56.312;101.728;2023-03-14T05:08:25;0.40;;;0.40;;
45128;SDS011;35512;56.312;101.728;2023-03-14T05:11:19;0.30;;;0.30;;
45128;SDS011;35512;56.312;101.728;2023-03-14T05:13:57;0.30;;;0.30;;
45128;SDS011;35512;56.312;101.728;2023-03-14T05:16:59;0.30;;;0.30;;
45128;SDS011;35512;56.312;101.728;2023-03-14T05:19:53;0.40;;;0.40;;
45128;SDS011;35512;56.312;101.728;2023-03-14T05:22:42;0.40;;;0.40;;
45128;SDS011;35512;56.312;101.728;2023-03-14T05:25:49;0.40;;;0.40;;
45128;SDS011;35512;56.312;101.728;2023-03-14T05:28:44;0.40;;;0.40;;
45128;SDS011;35512;56.312;101.728;2023-03-14T05:31:28;0.40;;;0.40;;
45128;SDS011;35512;56.312;101.728;2023-03-14T05:34:15;0.40;;;0.40;;
45128;SDS011;35512;56.312;101.728;2023-03-14T05:37:11;0.43;;;0.43;;
45128;SDS011;35512;56.312;101.728;2023-03-14T05:40:00;0.40;;;0.40;;
45128;SDS011;35512;56.312;101.728;2023-03-14T05:42:36;0.40;;;0.40;;
45128;SDS011;35512;56.312;101.728;2023-03-14T05:45:08;0.30;;;0.30;;
45128;SDS011;35512;56.312;101.728;2023-03-14T05:48:04;0.30;;;0.30;;
45128;SDS011;35512;56.312;101.728;2023-03-14T05:50:54;0.30;;;0.30;;
45128;SDS011;35512;56.312;101.728;2023-03-14T05:53:35;0.30;;;0.30;;
45128;SDS011;35512;56.312;101.728;2023-03-14T05:56:27;0.30;;;0.30;;
45128;SDS011;35512;56.312;101.728;2023-03-14T05:59:18;0.30;;;0.30;;
45128;SDS011;35512;56.312;101.728;2023-03-14T06:01:59;0.40;;;0.40;;
45128;SDS011;35512;56.312;101.728;2023-03-14T06:04:38;0.40;;;0.40;;
45128;SDS011;35512;56.312;101.728;2023-03-14T06:07:07;0.47;;;0.47;;
45128;SDS011;35512;56.312;101.728;2023-03-14T06:09:37;0.40;;;0.40;;
45128;SDS011;35512;56.312;101.728;2023-03-14T06:12:08;0.40;;;0.40;;
45128;SDS011;35512;56.312;101.728;2023-03-14T06:14:42;0.50;;;0.50;;
45128;SDS011;35512;56.312;101.728;2023-03-14T06:17:11;0.52;;;0.52;;
45128;SDS011;35512;56.312;101.728;2023-03-14T06:19:48;0.40;;;0.40;;
45128;SDS011;35512;56.312;101.728;2023-03-14T06:22:17;0.40;;;0.40;;
45128;SDS011;35512;56.312;101.728;2023-03-14T06:24:47;0.30;;;0.30;;
45128;SDS011;35512;56.312;101.728;2023-03-14T06:27:17;0.30;;;0.30;;
45128;SDS011;35512;56.312;101.728;2023-03-14T06:29:47;0.30;;;0.30;;
45128;SDS011;35512;56.312;101.728;2023-03-14T06:32:16;0.40;;;0.40;;
45128;SDS011;35512;56.312;101.728;2023-03-14T06:34:46;0.30;;;0.30;;
45128;SDS011;35512;56.312;101.728;2023-03-14T06:37:16;0.30;;;0.30;;
45128;SDS011;35512;56.312;101.728;2023-03-14T06:39:48;0.30;;;0.30;;
45128;SDS011;35512;56.312;101.728;2023-03-14T06:42:43;0.38;;;0.38;;
45128;SDS011;35512;56.312;101.728;2023-03-14T06:45:15;0.40;;;0.40;;
45128;SDS011;35512;56.312;101.728;2023-03-14T06:47:44;0.30;;;0.30;;
45128;SDS011;35512;56.312;101.728;2023-03-14T06:53:49;0.30;;;0.30;;
45128;SDS011;35512;56.312;101.728;2023-03-14T06:56:21;0.40;;;0.40;;
45128;SDS011;35512;56.312;101.728;2023-03-14T06:58:50;0.40;;;0.40;;
45128;SDS011;35512;56.312;101.728;2023-03-14T07:01:26;0.40;;;0.40;;
45128;SDS011;35512;56.312;101.728;2023-03-14T07:04:05;0.40;;;0.40;;
45128;SDS011;35512;56.312;101.728;2023-03-14T07:06:36;0.40;;;0.40;;
45128;SDS011;35512;56.312;101.728;2023-03-14T07:09:07;0.30;;;0.30;;
45128;SDS011;35512;56.312;101.728;2023-03-14T07:11:40;0.30;;;0.30;;
45128;SDS011;35512;56.312;101.728;2023-03-14T07:14:09;0.35;;;0.35;;
45128;SDS011;35512;56.312;101.728;2023-03-14T07:16:38;0.30;;;0.30;;
45128;SDS011;35512;56.312;101.728;2023-03-14T07:19:08;0.30;;;0.30;;
45128;SDS011;35512;56.312;101.728;2023-03-14T07:21:37;0.30;;;0.30;;
45128;SDS011;35512;56.312;101.728;2023-03-14T07:24:10;0.30;;;0.30;;
45128;SDS011;35512;56.312;101.728;2023-03-14T07:26:40;0.30;;;0.30;;
45128;SDS011;35512;56.312;101.728;2023-03-14T07:29:09;0.30;;;0.30;;
45128;SDS011;35512;56.312;101.728;2023-03-14T07:31:40;0.30;;;0.30;;
45128;SDS011;35512;56.312;101.728;2023-03-14T07:34:09;0.40;;;0.40;;
45128;SDS011;35512;56.312;101.728;2023-03-14T07:36:42;0.40;;;0.40;;
45128;SDS011;35512;56.312;101.728;2023-03-14T07:39:11;0.40;;;0.40;;
45128;SDS011;35512;56.312;101.728;2023-03-14T07:44:39;0.40;;;0.40;;
45128;SDS011;35512;56.312;101.728;2023-03-14T07:47:08;0.40;;;0.40;;
45128;SDS011;35512;56.312;101.728;2023-03-14T07:49:38;0.30;;;0.30;;
45128;SDS011;35512;56.312;101.728;2023-03-14T07:52:07;0.30;;;0.30;;
45128;SDS011;35512;56.312;101.728;2023-03-14T07:54:36;0.30;;;0.30;;
45128;SDS011;35512;56.312;101.728;2023-03-14T07:57:05;0.40;;;0.40;;
45128;SDS011;35512;56.312;101.728;2023-03-14T07:59:34;0.30;;;0.30;;
45128;SDS011;35512;56.312;101.728;2023-03-14T08:02:04;0.40;;;0.40;;
45128;SDS011;35512;56.312;101.728;2023-03-14T08:04:39;0.40;;;0.40;;
45128;SDS011;35512;56.312;101.728;2023-03-14T08:07:08;0.30;;;0.30;;
45128;SDS011;35512;56.312;101.728;2023-03-14T08:09:37;0.40;;;0.40;;
45128;SDS011;35512;56.312;101.728;2023-03-14T08:12:06;0.40;;;0.40;;
45128;SDS011;35512;56.312;101.728;2023-03-14T08:14:35;0.40;;;0.40;;
45128;SDS011;35512;56.312;101.728;2023-03-14T08:17:04;0.40;;;0.40;;
45128;SDS011;35512;56.312;101.728;2023-03-14T08:19:36;0.40;;;0.40;;
45128;SDS011;35512;56.312;101.728;2023-03-14T08:22:04;0.50;;;0.50;;
45128;SDS011;35512;56.312;101.728;2023-03-14T08:24:33;0.40;;;0.40;;
45128;SDS011;35512;56.312;101.728;2023-03-14T08:27:02;0.40;;;0.40;;
45128;SDS011;35512;56.312;101.728;2023-03-14T08:29:31;0.40;;;0.40;;
45128;SDS011;35512;56.312;101.728;2023-03-14T08:32:00;0.40;;;0.40;;
45128;SDS011;35512;56.312;101.728;2023-03-14T08:34:29;0.30;;;0.30;;
45128;SDS011;35512;56.312;101.728;2023-03-14T08:36:58;0.35;;;0.35;;
45128;SDS011;35512;56.312;101.728;2023-03-14T08:39:30;0.30;;;0.30;;
45128;SDS011;35512;56.312;101.728;2023-03-14T08:41:59;0.40;;;0.40;;
45128;SDS011;35512;56.312;101.728;2023-03-14T08:44:28;0.40;;;0.40;;
45128;SDS011;35512;56.312;101.728;2023-03-14T08:46:57;0.35;;;0.35;;
45128;SDS011;35512;56.312;101.728;2023-03-14T08:49:26;0.32;;;0.32;;
45128;SDS011;35512;56.312;101.728;2023-03-14T08:51:55;0.40;;;0.40;;
45128;SDS011;35512;56.312;101.728;2023-03-14T08:54:24;0.40;;;0.40;;
45128;SDS011;35512;56.312;101.728;2023-03-14T08:56:52;0.40;;;0.40;;
45128;SDS011;35512;56.312;101.728;2023-03-14T08:59:21;0.40;;;0.40;;
45128;SDS011;35512;56.312;101.728;2023-03-14T09:01:51;0.40;;;0.40;;
45128;SDS011;35512;56.312;101.728;2023-03-14T09:04:20;0.40;;;0.40;;
45128;SDS011;35512;56.312;101.728;2023-03-14T09:06:50;0.30;;;0.30;;
45128;SDS011;35512;56.312;101.728;2023-03-14T09:09:19;0.40;;;0.40;;
45128;SDS011;35512;56.312;101.728;2023-03-14T09:11:48;0.30;;;0.30;;
45128;SDS011;35512;56.312;101.728;2023-03-14T09:14:16;0.30;;;0.30;;
45128;SDS011;35512;56.312;101.728;2023-03-14T09:16:47;0.40;;;0.40;;
45128;SDS011;35512;56.312;101.728;2023-03-14T09:19:16;0.40;;;0.40;;
45128;SDS011;35512;56.312;101.728;2023-03-14T09:21:45;0.40;;;0.40;;
45128;SDS011;35512;56.312;101.728;2023-03-14T09:24:14;0.40;;;0.40;;
45128;SDS011;35512;56.312;101.728;2023-03-14T09:26:44;0.40;;;0.40;;
45128;SDS011;35512;56.312;101.728;2023-03-14T09:29:12;0.40;;;0.40;;
45128;SDS011;35512;56.312;101.728;2023-03-14T09:31:41;0.40;;;0.40;;
45128;SDS011;35512;56.312;101.728;2023-03-14T09:34:10;0.40;;;0.40;;
45128;SDS011;35512;56.312;101.728;2023-03-14T09:36:39;0.40;;;0.40;;
45128;SDS011;35512;56.312;101.728;2023-03-14T09:39:08;0.30;;;0.30;;
45128;SDS011;35512;56.312;101.728;2023-03-14T09:41:38;0.40;;;0.40;;
45128;SDS011;35512;56.312;101.728;2023-03-14T09:44:15;0.40;;;0.40;;
45128;SDS011;35512;56.312;101.728;2023-03-14T09:46:50;0.40;;;0.40;;
45128;SDS011;35512;56.312;101.728;2023-03-14T09:51:56;0.40;;;0.40;;
45128;SDS011;35512;56.312;101.728;2023-03-14T09:57:04;0.30;;;0.30;;
45128;SDS011;35512;56.312;101.728;2023-03-14T09:59:35;0.40;;;0.40;;
45128;SDS011;35512;56.312;101.728;2023-03-14T10:02:23;0.40;;;0.40;;
45128;SDS011;35512;56.312;101.728;2023-03-14T10:04:58;0.40;;;0.40;;
45128;SDS011;35512;56.312;101.728;2023-03-14T10:07:33;0.40;;;0.40;;
45128;SDS011;35512;56.312;101.728;2023-03-14T10:10:08;0.40;;;0.40;;
45128;SDS011;35512;56.312;101.728;2023-03-14T10:12:56;0.30;;;0.30;;
45128;SDS011;35512;56.312;101.728;2023-03-14T10:15:32;0.40;;;0.40;;
45128;SDS011;35512;56.312;101.728;2023-03-14T10:18:03;0.40;;;0.40;;
45128;SDS011;35512;56.312;101.728;2023-03-14T10:20:41;0.30;;;0.30;;
45128;SDS011;35512;56.312;101.728;2023-03-14T10:25:41;0.40;;;0.40;;
45128;SDS011;35512;56.312;101.728;2023-03-14T10:28:25;0.40;;;0.40;;
45128;SDS011;35512;56.312;101.728;2023-03-14T10:30:56;0.40;;;0.40;;
45128;SDS011;35512;56.312;101.728;2023-03-14T10:33:27;0.40;;;0.40;;
45128;SDS011;35512;56.312;101.728;2023-03-14T10:38:56;0.40;;;0.40;;
45128;SDS011;35512;56.312;101.728;2023-03-14T10:41:33;0.40;;;0.40;;
45128;SDS011;35512;56.312;101.728;2023-03-14T10:44:02;0.40;;;0.40;;
45128;SDS011;35512;56.312;101.728;2023-03-14T10:46:41;0.40;;;0.40;;
45128;SDS011;35512;56.312;101.728;2023-03-14T10:49:29;0.40;;;0.40;;
45128;SDS011;35512;56.312;101.728;2023-03-14T10:52:12;0.40;;;0.40;;
45128;SDS011;35512;56.312;101.728;2023-03-14T10:55:11;0.40;;;0.40;;
45128;SDS011;35512;56.312;101.728;2023-03-14T10:57:41;0.45;;;0.45;;
45128;SDS011;35512;56.312;101.728;2023-03-14T11:00:16;0.40;;;0.40;;
45128;SDS011;35512;56.312;101.728;2023-03-14T11:03:08;0.50;;;0.50;;
45128;SDS011;35512;56.312;101.728;2023-03-14T11:05:49;0.40;;;0.40;;
45128;SDS011;35512;56.312;101.728;2023-03-14T11:11:23;0.40;;;0.40;;
45128;SDS011;35512;56.312;101.728;2023-03-14T11:22:04;0.50;;;0.50;;
45128;SDS011;35512;56.312;101.728;2023-03-14T11:24:41;0.50;;;0.50;;
45128;SDS011;35512;56.312;101.728;2023-03-14T11:27:30;0.50;;;0.50;;
45128;SDS011;35512;56.312;101.728;2023-03-14T11:33:46;0.40;;;0.40;;
45128;SDS011;35512;56.312;101.728;2023-03-14T11:40:59;0.52;;;0.52;;
45128;SDS011;35512;56.312;101.728;2023-03-14T11:43:30;0.50;;;0.50;;
45128;SDS011;35512;56.312;101.728;2023-03-14T11:46:09;0.50;;;0.50;;
45128;SDS011;35512;56.312;101.728;2023-03-14T11:48:47;0.47;;;0.47;;
45128;SDS011;35512;56.312;101.728;2023-03-14T11:51:21;0.50;;;0.50;;
45128;SDS011;35512;56.312;101.728;2023-03-14T11:54:17;0.40;;;0.40;;
45128;SDS011;35512;56.312;101.728;2023-03-14T11:57:21;0.50;;;0.50;;
45128;SDS011;35512;56.312;101.728;2023-03-14T12:02:48;0.50;;;0.50;;
45128;SDS011;35512;56.312;101.728;2023-03-14T12:08:19;0.50;;;0.50;;
45128;SDS011;35512;56.312;101.728;2023-03-14T12:13:45;0.50;;;0.50;;
45128;SDS011;35512;56.312;101.728;2023-03-14T12:18:52;0.40;;;0.40;;
45128;SDS011;35512;56.312;101.728;2023-03-14T12:21:22;0.50;;;0.50;;
45128;SDS011;35512;56.312;101.728;2023-03-14T12:24:14;0.50;;;0.50;;
45128;SDS011;35512;56.312;101.728;2023-03-14T12:26:58;0.50;;;0.50;;
45128;SDS011;35512;56.312;101.728;2023-03-14T12:29:29;0.50;;;0.50;;
45128;SDS011;35512;56.312;101.728;2023-03-14T12:34:39;0.50;;;0.50;;
45128;SDS011;35512;56.312;101.728;2023-03-14T12:40:31;0.50;;;0.50;;
45128;SDS011;35512;56.312;101.728;2023-03-14T12:43:23;0.50;;;0.50;;
45128;SDS011;35512;56.312;101.728;2023-03-14T12:46:15;0.50;;;0.50;;
45128;SDS011;35512;56.312;101.728;2023-03-14T13:02:28;0.50;;;0.50;;
45128;SDS011;35512;56.312;101.728;2023-03-14T13:05:16;0.50;;;0.50;;
45128;SDS011;35512;56.312;101.728;2023-03-14T13:08:11;0.47;;;0.47;;
45128;SDS011;35512;56.312;101.728;2023-03-14T13:10:40;0.40;;;0.40;;
45128;SDS011;35512;56.312;101.728;2023-03-14T13:13:15;0.50;;;0.50;;
45128;SDS011;35512;56.312;101.728;2023-03-14T13:15:49;0.50;;;0.50;;
45128;SDS011;35512;56.312;101.728;2023-03-14T13:18:40;0.45;;;0.45;;
45128;SDS011;35512;56.312;101.728;2023-03-14T13:24:00;0.43;;;0.43;;
45128;SDS011;35512;56.312;101.728;2023-03-14T13:26:35;0.50;;;0.50;;
45128;SDS011;35512;56.312;101.728;2023-03-14T13:29:22;0.50;;;0.50;;
45128;SDS011;35512;56.312;101.728;2023-03-14T13:31:54;0.50;;;0.50;;
45128;SDS011;35512;56.312;101.728;2023-03-14T13:34:31;0.50;;;0.50;;
45128;SDS011;35512;56.312;101.728;2023-03-14T13:37:02;0.50;;;0.50;;
45128;SDS011;35512;56.312;101.728;2023-03-14T13:39:31;0.50;;;0.50;;
45128;SDS011;35512;56.312;101.728;2023-03-14T13:42:01;0.50;;;0.50;;
45128;SDS011;35512;56.312;101.728;2023-03-14T13:44:34;0.50;;;0.50;;
45128;SDS011;35512;56.312;101.728;2023-03-14T13:47:09;0.50;;;0.50;;
45128;SDS011;35512;56.312;101.728;2023-03-14T13:49:43;0.45;;;0.45;;
45128;SDS011;35512;56.312;101.728;2023-03-14T13:52:23;0.50;;;0.50;;
45128;SDS011;35512;56.312;101.728;2023-03-14T13:54:53;0.50;;;0.50;;
45128;SDS011;35512;56.312;101.728;2023-03-14T13:57:22;0.50;;;0.50;;
45128;SDS011;35512;56.312;101.728;2023-03-14T14:00:02;0.50;;;0.50;;
45128;SDS011;35512;56.312;101.728;2023-03-14T14:02:39;0.60;;;0.60;;
45128;SDS011;35512;56.312;101.728;2023-03-14T14:05:10;0.50;;;0.50;;
45128;SDS011;35512;56.312;101.728;2023-03-14T14:07:40;0.50;;;0.50;;
45128;SDS011;35512;56.312;101.728;2023-03-14T14:10:12;0.50;;;0.50;;
45128;SDS011;35512;56.312;101.728;2023-03-14T14:12:43;0.50;;;0.50;;
45128;SDS011;35512;56.312;101.728;2023-03-14T14:15:27;0.50;;;0.50;;
45128;SDS011;35512;56.312;101.728;2023-03-14T14:18:04;0.60;;;0.60;;
45128;SDS011;35512;56.312;101.728;2023-03-14T14:20:37;0.52;;;0.52;;
45128;SDS011;35512;56.312;101.728;2023-03-14T14:23:10;0.50;;;0.50;;
45128;SDS011;35512;56.312;101.728;2023-03-14T14:25:42;0.50;;;0.50;;
45128;SDS011;35512;56.312;101.728;2023-03-14T14:31:02;0.50;;;0.50;;
45128;SDS011;35512;56.312;101.728;2023-03-14T14:33:44;0.50;;;0.50;;
45128;SDS011;35512;56.312;101.728;2023-03-14T14:36:19;0.50;;;0.50;;
45128;SDS011;35512;56.312;101.728;2023-03-14T14:41:50;0.50;;;0.50;;
45128;SDS011;35512;56.312;101.728;2023-03-14T14:44:21;0.50;;;0.50;;
45128;SDS011;35512;56.312;101.728;2023-03-14T14:46:58;0.50;;;0.50;;
45128;SDS011;35512;56.312;101.728;2023-03-14T14:49:30;0.50;;;0.50;;
45128;SDS011;35512;56.312;101.728;2023-03-14T14:52:02;0.50;;;0.50;;
45128;SDS011;35512;56.312;101.728;2023-03-14T14:54:38;0.50;;;0.50;;
45128;SDS011;35512;56.312;101.728;2023-03-14T14:57:23;0.50;;;0.50;;
45128;SDS011;35512;56.312;101.728;2023-03-14T15:00:03;0.50;;;0.50;;
45128;SDS011;35512;56.312;101.728;2023-03-14T15:02:46;0.50;;;0.50;;
45128;SDS011;35512;56.312;101.728;2023-03-14T15:05:23;0.50;;;0.50;;
45128;SDS011;35512;56.312;101.728;2023-03-14T15:07:55;0.50;;;0.50;;
45128;SDS011;35512;56.312;101.728;2023-03-14T15:10:25;0.60;;;0.60;;
45128;SDS011;35512;56.312;101.728;2023-03-14T15:12:54;0.50;;;0.50;;
45128;SDS011;35512;56.312;101.728;2023-03-14T15:15:23;0.50;;;0.50;;
45128;SDS011;35512;56.312;101.728;2023-03-14T15:17:52;0.50;;;0.50;;
45128;SDS011;35512;56.312;101.728;2023-03-14T15:20:21;0.50;;;0.50;;
45128;SDS011;35512;56.312;101.728;2023-03-14T15:22:51;0.50;;;0.50;;
45128;SDS011;35512;56.312;101.728;2023-03-14T15:25:20;0.50;;;0.50;;
45128;SDS011;35512;56.312;101.728;2023-03-14T15:28:11;0.50;;;0.50;;
45128;SDS011;35512;56.312;101.728;2023-03-14T15:30:53;0.50;;;0.50;;
45128;SDS011;35512;56.312;101.728;2023-03-14T15:33:26;0.40;;;0.40;;
45128;SDS011;35512;56.312;101.728;2023-03-14T15:35:56;0.50;;;0.50;;
45128;SDS011;35512;56.312;101.728;2023-03-14T15:38:25;0.50;;;0.50;;
45128;SDS011;35512;56.312;101.728;2023-03-14T15:40:54;0.50;;;0.50;;
45128;SDS011;35512;56.312;101.728;2023-03-14T15:43:23;0.50;;;0.50;;
45128;SDS011;35512;56.312;101.728;2023-03-14T15:45:52;0.45;;;0.45;;
45128;SDS011;35512;56.312;101.728;2023-03-14T15:48:21;0.40;;;0.40;;
45128;SDS011;35512;56.312;101.728;2023-03-14T15:50:50;0.50;;;0.50;;
45128;SDS011;35512;56.312;101.728;2023-03-14T15:53:18;0.50;;;0.50;;
45128;SDS011;35512;56.312;101.728;2023-03-14T15:55:47;0.50;;;0.50;;
45128;SDS011;35512;56.312;101.728;2023-03-14T15:58:17;0.50;;;0.50;;
45128;SDS011;35512;56.312;101.728;2023-03-14T16:00:49;0.50;;;0.50;;
45128;SDS011;35512;56.312;101.728;2023-03-14T16:03:19;0.50;;;0.50;;
45128;SDS011;35512;56.312;101.728;2023-03-14T16:05:48;0.50;;;0.50;;
45128;SDS011;35512;56.312;101.728;2023-03-14T16:08:17;0.50;;;0.50;;
45128;SDS011;35512;56.312;101.728;2023-03-14T16:10:45;0.50;;;0.50;;
45128;SDS011;35512;56.312;101.728;2023-03-14T16:13:15;0.50;;;0.50;;
45128;SDS011;35512;56.312;101.728;2023-03-14T16:15:57;0.50;;;0.50;;
45128;SDS011;35512;56.312;101.728;2023-03-14T16:18:28;0.40;;;0.40;;
45128;SDS011;35512;56.312;101.728;2023-03-14T16:23:53;0.40;;;0.40;;